Muncie, IN (47302)

09:52 PM EDT die 29o July, anno 2016 (GMT -0400)
Delaware County Emergency Management | | Change Station

Elev 955 ft 40.19 °N, 85.38 °W | Updated 3 minutes ago

Light Rain
Pluvia Levis
70.5 °F
Feels Like 70.5 °F
N
0.0
Ventus Variabilis Ventus from Inter Austrum et Eurum

Hodie
High -- | Low -- °F
--% Chance of Precip.
Yesterday
High -- | Low -- °F
Precip. -- in
Pressio 29.91 in
Visibilitas 10.0 milia passuum
Clouds Few 7500 ft
Nubes Dispersae 11000 ft
Frigus in quo Ros apparet 66 °F
Umor 86%
Rainfall 0.17 in
Snow Depth Not available.
6:37 AM 8:58 PM
Waning Crescent, 17% visible
METAR KMIE 300053Z 03005KT 10SM -RA FEW075 SCT110 22/20 A2994 RMK AO2 SLP127 P0007 T02220200
Pressio 29.91 in
Visibilitas 10.0 milia passuum
Clouds Few 7500 ft
Nubes Dispersae 11000 ft
Frigus in quo Ros apparet 66 °F
Umor 86%
Rainfall 0.17 in
Snow Depth Not available.
6:37 AM 8:58 PM
Waning Crescent, 17% visible
METAR KMIE 300053Z 03005KT 10SM -RA FEW075 SCT110 22/20 A2994 RMK AO2 SLP127 P0007 T02220200

10-Day Weather Forecast

Almanac

Astronomy

Jul. 29, 2016 Rise Set
Actual Time
Civil Twilight
Nautical Twilight
Astronomical Twilight
Moon
Length Of Visible Light
Length of Day
Tomorrow will be .
, % of the Moon is Illuminated

Today's Extremes

State Highs State Lows

Community

WunderPhotos

Upload Photos

1,928,479 photos uploaded!

WunderBlog® & News

Nearby

Air Quality

  Air Quality AQ Index Pollutant
Not available.

Snow Depth

Station Depth Elevation

Earthquake Activity

City Distance Mag. Time & Date
Minimum magnitude displayed is 2.5.

Coastal Water Temperatures

Locus Calor

Stations

Nearby Weather Stations

Station Location Temp Frigus Venti Frigus in quo Ros apparet Umor Ventus Precip. Elev Renovata Type
                   

Watches & Warnings

There are currently no watches in effect.